sensor_id;sensor_type;location;lat;lon;timestamp;P1;durP1;ratioP1;P2;durP2;ratioP2
45136;SDS011;30894;51.740;19.498;2023-02-01T00:00:25;0.55;;;0.55;;
45136;SDS011;30894;51.740;19.498;2023-02-01T00:03:12;2.90;;;0.80;;
45136;SDS011;30894;51.740;19.498;2023-02-01T00:05:40;0.70;;;0.60;;
45136;SDS011;30894;51.740;19.498;2023-02-01T00:08:08;0.25;;;0.25;;
45136;SDS011;30894;51.740;19.498;2023-02-01T00:10:35;0.73;;;0.40;;
45136;SDS011;30894;51.740;19.498;2023-02-01T00:13:01;1.05;;;0.55;;
45136;SDS011;30894;51.740;19.498;2023-02-01T00:15:27;1.35;;;0.50;;
45136;SDS011;30894;51.740;19.498;2023-02-01T00:17:54;0.60;;;0.60;;
45136;SDS011;30894;51.740;19.498;2023-02-01T00:20:20;0.80;;;0.32;;
45136;SDS011;30894;51.740;19.498;2023-02-01T00:22:46;3.58;;;0.45;;
45136;SDS011;30894;51.740;19.498;2023-02-01T00:25:13;1.27;;;0.38;;
45136;SDS011;30894;51.740;19.498;2023-02-01T00:27:39;0.82;;;0.38;;
45136;SDS011;30894;51.740;19.498;2023-02-01T00:30:05;2.45;;;0.68;;
45136;SDS011;30894;51.740;19.498;2023-02-01T00:32:32;4.50;;;1.08;;
45136;SDS011;30894;51.740;19.498;2023-02-01T00:34:59;1.30;;;0.50;;
45136;SDS011;30894;51.740;19.498;2023-02-01T00:37:24;2.03;;;0.30;;
45136;SDS011;30894;51.740;19.498;2023-02-01T00:39:51;1.83;;;0.50;;
45136;SDS011;30894;51.740;19.498;2023-02-01T00:42:19;0.77;;;0.65;;
45136;SDS011;30894;51.740;19.498;2023-02-01T00:44:46;0.75;;;0.63;;
45136;SDS011;30894;51.740;19.498;2023-02-01T00:47:12;4.38;;;0.40;;
45136;SDS011;30894;51.740;19.498;2023-02-01T00:49:38;1.35;;;0.52;;
45136;SDS011;30894;51.740;19.498;2023-02-01T00:52:04;0.60;;;0.35;;
45136;SDS011;30894;51.740;19.498;2023-02-01T00:54:30;1.13;;;0.50;;
45136;SDS011;30894;51.740;19.498;2023-02-01T00:56:57;0.93;;;0.50;;
45136;SDS011;30894;51.740;19.498;2023-02-01T00:59:23;1.85;;;0.50;;
45136;SDS011;30894;51.740;19.498;2023-02-01T01:01:49;0.40;;;0.40;;
45136;SDS011;30894;51.740;19.498;2023-02-01T01:04:16;3.28;;;1.05;;
45136;SDS011;30894;51.740;19.498;2023-02-01T01:06:42;0.95;;;0.60;;
45136;SDS011;30894;51.740;19.498;2023-02-01T01:09:08;1.42;;;0.55;;
45136;SDS011;30894;51.740;19.498;2023-02-01T01:11:35;1.77;;;0.68;;
45136;SDS011;30894;51.740;19.498;2023-02-01T01:14:04;1.55;;;0.52;;
45136;SDS011;30894;51.740;19.498;2023-02-01T01:16:32;2.15;;;0.75;;
45136;SDS011;30894;51.740;19.498;2023-02-01T01:18:59;1.33;;;0.70;;
45136;SDS011;30894;51.740;19.498;2023-02-01T01:21:25;4.75;;;0.60;;
45136;SDS011;30894;51.740;19.498;2023-02-01T01:23:53;2.58;;;0.32;;
45136;SDS011;30894;51.740;19.498;2023-02-01T01:26:20;7.25;;;1.10;;
45136;SDS011;30894;51.740;19.498;2023-02-01T01:28:48;2.08;;;0.73;;
45136;SDS011;30894;51.740;19.498;2023-02-01T01:31:16;2.60;;;0.70;;
45136;SDS011;30894;51.740;19.498;2023-02-01T01:33:47;1.10;;;0.63;;
45136;SDS011;30894;51.740;19.498;2023-02-01T01:36:15;2.70;;;0.63;;
45136;SDS011;30894;51.740;19.498;2023-02-01T01:38:42;1.58;;;0.40;;
45136;SDS011;30894;51.740;19.498;2023-02-01T01:41:12;0.90;;;0.50;;
45136;SDS011;30894;51.740;19.498;2023-02-01T01:46:25;1.10;;;0.60;;
45136;SDS011;30894;51.740;19.498;2023-02-01T01:49:04;1.80;;;0.68;;
45136;SDS011;30894;51.740;19.498;2023-02-01T01:51:42;6.00;;;1.35;;
45136;SDS011;30894;51.740;19.498;2023-02-01T01:54:15;11.52;;;0.85;;
45136;SDS011;30894;51.740;19.498;2023-02-01T01:56:50;3.53;;;0.60;;
45136;SDS011;30894;51.740;19.498;2023-02-01T01:59:21;3.15;;;1.15;;
45136;SDS011;30894;51.740;19.498;2023-02-01T02:01:49;3.13;;;0.68;;
45136;SDS011;30894;51.740;19.498;2023-02-01T02:04:16;4.45;;;0.85;;
45136;SDS011;30894;51.740;19.498;2023-02-01T02:06:45;2.42;;;0.93;;
45136;SDS011;30894;51.740;19.498;2023-02-01T02:09:21;3.72;;;1.20;;
45136;SDS011;30894;51.740;19.498;2023-02-01T02:11:47;1.30;;;0.70;;
45136;SDS011;30894;51.740;19.498;2023-02-01T02:14:13;2.17;;;0.70;;
45136;SDS011;30894;51.740;19.498;2023-02-01T02:51:59;6.72;;;0.98;;
45136;SDS011;30894;51.740;19.498;2023-02-01T02:54:52;9.38;;;1.73;;
45136;SDS011;30894;51.740;19.498;2023-02-01T02:57:28;1.23;;;0.75;;
45136;SDS011;30894;51.740;19.498;2023-02-01T03:00:20;3.38;;;1.15;;
45136;SDS011;30894;51.740;19.498;2023-02-01T03:03:11;4.10;;;1.08;;
45136;SDS011;30894;51.740;19.498;2023-02-01T03:05:56;3.08;;;0.73;;
45136;SDS011;30894;51.740;19.498;2023-02-01T03:13:35;1.67;;;0.70;;
45136;SDS011;30894;51.740;19.498;2023-02-01T03:19:23;3.83;;;0.98;;
45136;SDS011;30894;51.740;19.498;2023-02-01T03:24:33;7.13;;;1.27;;
45136;SDS011;30894;51.740;19.498;2023-02-01T03:29:51;3.22;;;1.30;;
45136;SDS011;30894;51.740;19.498;2023-02-01T03:32:43;6.00;;;1.20;;
45136;SDS011;30894;51.740;19.498;2023-02-01T03:38:20;3.95;;;1.17;;
45136;SDS011;30894;51.740;19.498;2023-02-01T03:40:55;3.03;;;1.20;;
45136;SDS011;30894;51.740;19.498;2023-02-01T03:46:34;2.08;;;0.85;;
45136;SDS011;30894;51.740;19.498;2023-02-01T03:49:06;2.58;;;1.00;;
45136;SDS011;30894;51.740;19.498;2023-02-01T03:51:37;0.75;;;0.75;;
45136;SDS011;30894;51.740;19.498;2023-02-01T03:54:06;1.70;;;0.80;;
45136;SDS011;30894;51.740;19.498;2023-02-01T03:56:39;4.32;;;1.25;;
45136;SDS011;30894;51.740;19.498;2023-02-01T03:59:09;2.72;;;0.95;;
45136;SDS011;30894;51.740;19.498;2023-02-01T04:01:36;6.75;;;0.85;;
45136;SDS011;30894;51.740;19.498;2023-02-01T04:04:03;5.50;;;1.23;;
45136;SDS011;30894;51.740;19.498;2023-02-01T04:06:29;3.28;;;1.17;;
45136;SDS011;30894;51.740;19.498;2023-02-01T04:08:55;8.48;;;1.13;;
45136;SDS011;30894;51.740;19.498;2023-02-01T04:11:21;8.45;;;2.05;;
45136;SDS011;30894;51.740;19.498;2023-02-01T04:13:47;1.25;;;0.70;;
45136;SDS011;30894;51.740;19.498;2023-02-01T04:16:13;1.80;;;0.85;;
45136;SDS011;30894;51.740;19.498;2023-02-01T04:18:40;5.88;;;1.27;;
45136;SDS011;30894;51.740;19.498;2023-02-01T04:21:06;4.72;;;1.00;;
45136;SDS011;30894;51.740;19.498;2023-02-01T04:23:32;6.25;;;1.85;;
45136;SDS011;30894;51.740;19.498;2023-02-01T04:25:58;2.55;;;0.88;;
45136;SDS011;30894;51.740;19.498;2023-02-01T04:28:29;2.42;;;1.17;;
45136;SDS011;30894;51.740;19.498;2023-02-01T04:30:56;7.22;;;1.40;;
45136;SDS011;30894;51.740;19.498;2023-02-01T04:33:22;9.38;;;0.93;;
45136;SDS011;30894;51.740;19.498;2023-02-01T04:35:49;3.05;;;0.68;;
45136;SDS011;30894;51.740;19.498;2023-02-01T04:38:15;3.33;;;0.60;;
45136;SDS011;30894;51.740;19.498;2023-02-01T04:40:41;3.03;;;0.85;;
45136;SDS011;30894;51.740;19.498;2023-02-01T04:43:08;4.00;;;1.55;;
45136;SDS011;30894;51.740;19.498;2023-02-01T04:45:34;2.97;;;0.60;;
45136;SDS011;30894;51.740;19.498;2023-02-01T04:48:00;2.85;;;0.80;;
45136;SDS011;30894;51.740;19.498;2023-02-01T04:50:26;6.88;;;1.33;;
45136;SDS011;30894;51.740;19.498;2023-02-01T04:52:53;2.03;;;0.70;;
45136;SDS011;30894;51.740;19.498;2023-02-01T04:55:19;1.15;;;0.70;;
45136;SDS011;30894;51.740;19.498;2023-02-01T04:57:45;3.78;;;0.50;;
45136;SDS011;30894;51.740;19.498;2023-02-01T05:00:11;4.00;;;1.05;;
45136;SDS011;30894;51.740;19.498;2023-02-01T05:02:38;2.75;;;0.75;;
45136;SDS011;30894;51.740;19.498;2023-02-01T05:05:04;1.55;;;0.55;;
45136;SDS011;30894;51.740;19.498;2023-02-01T05:07:31;3.95;;;1.50;;
45136;SDS011;30894;51.740;19.498;2023-02-01T05:09:57;4.03;;;1.20;;
45136;SDS011;30894;51.740;19.498;2023-02-01T05:12:23;9.32;;;0.95;;
45136;SDS011;30894;51.740;19.498;2023-02-01T05:15:08;1.92;;;0.75;;
45136;SDS011;30894;51.740;19.498;2023-02-01T05:17:35;0.40;;;0.40;;
45136;SDS011;30894;51.740;19.498;2023-02-01T05:20:01;7.05;;;1.35;;
45136;SDS011;30894;51.740;19.498;2023-02-01T05:22:27;0.40;;;0.40;;
45136;SDS011;30894;51.740;19.498;2023-02-01T05:24:53;3.13;;;0.82;;
45136;SDS011;30894;51.740;19.498;2023-02-01T05:27:19;7.10;;;1.83;;
45136;SDS011;30894;51.740;19.498;2023-02-01T05:29:45;4.05;;;1.10;;
45136;SDS011;30894;51.740;19.498;2023-02-01T05:32:12;2.30;;;1.10;;
45136;SDS011;30894;51.740;19.498;2023-02-01T05:34:38;3.45;;;0.90;;
45136;SDS011;30894;51.740;19.498;2023-02-01T05:37:05;4.47;;;1.40;;
45136;SDS011;30894;51.740;19.498;2023-02-01T05:39:31;4.70;;;1.00;;
45136;SDS011;30894;51.740;19.498;2023-02-01T05:41:57;5.40;;;1.17;;
45136;SDS011;30894;51.740;19.498;2023-02-01T05:44:24;5.57;;;1.02;;
45136;SDS011;30894;51.740;19.498;2023-02-01T05:46:51;6.15;;;1.45;;
45136;SDS011;30894;51.740;19.498;2023-02-01T05:49:18;6.10;;;0.70;;
45136;SDS011;30894;51.740;19.498;2023-02-01T05:51:47;9.48;;;1.75;;
45136;SDS011;30894;51.740;19.498;2023-02-01T05:54:13;3.72;;;1.00;;
45136;SDS011;30894;51.740;19.498;2023-02-01T05:56:40;2.95;;;1.25;;
45136;SDS011;30894;51.740;19.498;2023-02-01T05:59:06;6.97;;;2.10;;
45136;SDS011;30894;51.740;19.498;2023-02-01T06:01:33;2.50;;;1.08;;
45136;SDS011;30894;51.740;19.498;2023-02-01T06:03:59;6.18;;;1.33;;
45136;SDS011;30894;51.740;19.498;2023-02-01T06:06:29;3.97;;;1.48;;
45136;SDS011;30894;51.740;19.498;2023-02-01T06:09:03;5.40;;;1.48;;
45136;SDS011;30894;51.740;19.498;2023-02-01T06:11:30;20.38;;;1.88;;
45136;SDS011;30894;51.740;19.498;2023-02-01T06:14:00;4.03;;;1.45;;
45136;SDS011;30894;51.740;19.498;2023-02-01T06:16:26;1.90;;;0.85;;
45136;SDS011;30894;51.740;19.498;2023-02-01T06:18:52;3.25;;;1.10;;
45136;SDS011;30894;51.740;19.498;2023-02-01T06:21:19;8.52;;;1.60;;
45136;SDS011;30894;51.740;19.498;2023-02-01T06:23:51;6.30;;;1.63;;
45136;SDS011;30894;51.740;19.498;2023-02-01T06:26:19;10.05;;;0.98;;
45136;SDS011;30894;51.740;19.498;2023-02-01T06:28:46;5.35;;;1.10;;
45136;SDS011;30894;51.740;19.498;2023-02-01T06:31:12;4.03;;;1.58;;
45136;SDS011;30894;51.740;19.498;2023-02-01T06:33:39;2.40;;;0.80;;
45136;SDS011;30894;51.740;19.498;2023-02-01T06:36:06;5.50;;;1.38;;
45136;SDS011;30894;51.740;19.498;2023-02-01T06:38:35;7.60;;;1.42;;
45136;SDS011;30894;51.740;19.498;2023-02-01T06:41:02;3.78;;;1.23;;
45136;SDS011;30894;51.740;19.498;2023-02-01T06:43:29;11.98;;;2.88;;
45136;SDS011;30894;51.740;19.498;2023-02-01T06:46:03;3.70;;;1.35;;
45136;SDS011;30894;51.740;19.498;2023-02-01T06:48:32;8.38;;;2.20;;
45136;SDS011;30894;51.740;19.498;2023-02-01T06:50:59;7.00;;;1.50;;
45136;SDS011;30894;51.740;19.498;2023-02-01T06:53:25;7.50;;;1.65;;
45136;SDS011;30894;51.740;19.498;2023-02-01T06:55:53;6.28;;;1.88;;
45136;SDS011;30894;51.740;19.498;2023-02-01T06:58:28;5.55;;;1.75;;
45136;SDS011;30894;51.740;19.498;2023-02-01T07:01:06;9.32;;;2.15;;
45136;SDS011;30894;51.740;19.498;2023-02-01T07:03:34;7.60;;;1.58;;
45136;SDS011;30894;51.740;19.498;2023-02-01T07:06:01;6.25;;;1.15;;
45136;SDS011;30894;51.740;19.498;2023-02-01T07:08:33;3.20;;;1.33;;
45136;SDS011;30894;51.740;19.498;2023-02-01T07:11:03;6.50;;;1.95;;
45136;SDS011;30894;51.740;19.498;2023-02-01T07:13:33;7.25;;;1.60;;
45136;SDS011;30894;51.740;19.498;2023-02-01T07:16:01;7.97;;;1.90;;
45136;SDS011;30894;51.740;19.498;2023-02-01T07:18:30;7.32;;;1.52;;
45136;SDS011;30894;51.740;19.498;2023-02-01T07:20:58;7.30;;;1.70;;
45136;SDS011;30894;51.740;19.498;2023-02-01T07:23:26;9.55;;;2.35;;
45136;SDS011;30894;51.740;19.498;2023-02-01T07:25:53;12.95;;;2.38;;
45136;SDS011;30894;51.740;19.498;2023-02-01T07:28:21;11.05;;;1.58;;
45136;SDS011;30894;51.740;19.498;2023-02-01T07:30:48;4.72;;;1.80;;
45136;SDS011;30894;51.740;19.498;2023-02-01T07:33:19;6.75;;;1.65;;
45136;SDS011;30894;51.740;19.498;2023-02-01T07:35:49;7.03;;;2.40;;
45136;SDS011;30894;51.740;19.498;2023-02-01T07:38:16;6.22;;;1.63;;
45136;SDS011;30894;51.740;19.498;2023-02-01T07:40:43;12.32;;;2.03;;
45136;SDS011;30894;51.740;19.498;2023-02-01T07:43:09;7.85;;;2.10;;
45136;SDS011;30894;51.740;19.498;2023-02-01T07:45:36;8.48;;;1.90;;
45136;SDS011;30894;51.740;19.498;2023-02-01T07:48:02;13.45;;;2.03;;
45136;SDS011;30894;51.740;19.498;2023-02-01T07:50:29;7.15;;;2.33;;
45136;SDS011;30894;51.740;19.498;2023-02-01T07:52:58;4.50;;;1.00;;
45136;SDS011;30894;51.740;19.498;2023-02-01T07:55:26;10.57;;;2.33;;
45136;SDS011;30894;51.740;19.498;2023-02-01T07:57:52;6.13;;;1.25;;
45136;SDS011;30894;51.740;19.498;2023-02-01T08:00:23;9.05;;;1.73;;
45136;SDS011;30894;51.740;19.498;2023-02-01T08:03:09;6.03;;;1.85;;
45136;SDS011;30894;51.740;19.498;2023-02-01T08:05:35;8.95;;;2.22;;
45136;SDS011;30894;51.740;19.498;2023-02-01T08:08:02;8.15;;;1.92;;
45136;SDS011;30894;51.740;19.498;2023-02-01T08:10:28;11.07;;;2.25;;
45136;SDS011;30894;51.740;19.498;2023-02-01T08:12:57;8.70;;;2.10;;
45136;SDS011;30894;51.740;19.498;2023-02-01T08:15:26;6.15;;;1.70;;
45136;SDS011;30894;51.740;19.498;2023-02-01T08:17:55;11.07;;;2.03;;
45136;SDS011;30894;51.740;19.498;2023-02-01T08:20:22;7.97;;;1.85;;
45136;SDS011;30894;51.740;19.498;2023-02-01T08:22:49;6.72;;;1.88;;
45136;SDS011;30894;51.740;19.498;2023-02-01T08:25:16;7.15;;;1.70;;
45136;SDS011;30894;51.740;19.498;2023-02-01T08:27:42;14.00;;;2.03;;
45136;SDS011;30894;51.740;19.498;2023-02-01T08:30:09;11.82;;;2.35;;
45136;SDS011;30894;51.740;19.498;2023-02-01T08:32:39;8.38;;;1.85;;
45136;SDS011;30894;51.740;19.498;2023-02-01T08:35:06;3.97;;;1.50;;
45136;SDS011;30894;51.740;19.498;2023-02-01T08:37:33;11.88;;;2.72;;
45136;SDS011;30894;51.740;19.498;2023-02-01T08:40:00;4.55;;;1.48;;
45136;SDS011;30894;51.740;19.498;2023-02-01T08:42:27;7.95;;;1.92;;
45136;SDS011;30894;51.740;19.498;2023-02-01T08:45:12;6.85;;;1.88;;
45136;SDS011;30894;51.740;19.498;2023-02-01T08:47:39;6.82;;;1.42;;
45136;SDS011;30894;51.740;19.498;2023-02-01T08:50:05;12.00;;;1.50;;
45136;SDS011;30894;51.740;19.498;2023-02-01T08:52:32;14.70;;;2.53;;
45136;SDS011;30894;51.740;19.498;2023-02-01T08:54:59;10.38;;;1.85;;
45136;SDS011;30894;51.740;19.498;2023-02-01T08:57:25;11.95;;;2.70;;
45136;SDS011;30894;51.740;19.498;2023-02-01T08:59:51;11.95;;;1.98;;
45136;SDS011;30894;51.740;19.498;2023-02-01T09:02:17;9.20;;;2.38;;
45136;SDS011;30894;51.740;19.498;2023-02-01T09:04:44;12.95;;;2.83;;
45136;SDS011;30894;51.740;19.498;2023-02-01T09:07:10;6.30;;;1.95;;
45136;SDS011;30894;51.740;19.498;2023-02-01T09:09:38;14.55;;;3.13;;
45136;SDS011;30894;51.740;19.498;2023-02-01T09:12:05;11.10;;;3.05;;
45136;SDS011;30894;51.740;19.498;2023-02-01T09:14:32;3.83;;;1.45;;
45136;SDS011;30894;51.740;19.498;2023-02-01T09:16:58;7.70;;;1.85;;
45136;SDS011;30894;51.740;19.498;2023-02-01T09:19:24;13.23;;;2.63;;
45136;SDS011;30894;51.740;19.498;2023-02-01T09:21:51;10.57;;;2.63;;
45136;SDS011;30894;51.740;19.498;2023-02-01T09:24:17;6.20;;;1.58;;
45136;SDS011;30894;51.740;19.498;2023-02-01T09:26:43;9.30;;;2.35;;
45136;SDS011;30894;51.740;19.498;2023-02-01T09:29:09;10.07;;;2.78;;
45136;SDS011;30894;51.740;19.498;2023-02-01T09:31:36;8.73;;;3.03;;
45136;SDS011;30894;51.740;19.498;2023-02-01T09:34:04;11.90;;;1.92;;
45136;SDS011;30894;51.740;19.498;2023-02-01T09:36:30;7.57;;;1.80;;
45136;SDS011;30894;51.740;19.498;2023-02-01T09:38:58;6.63;;;1.73;;
45136;SDS011;30894;51.740;19.498;2023-02-01T09:44:42;10.32;;;1.83;;
45136;SDS011;30894;51.740;19.498;2023-02-01T09:47:46;7.13;;;2.25;;
45136;SDS011;30894;51.740;19.498;2023-02-01T09:50:21;6.13;;;2.05;;
45136;SDS011;30894;51.740;19.498;2023-02-01T09:56:05;14.02;;;2.17;;
45136;SDS011;30894;51.740;19.498;2023-02-01T09:58:40;9.95;;;1.52;;
45136;SDS011;30894;51.740;19.498;2023-02-01T10:01:20;8.30;;;2.10;;
45136;SDS011;30894;51.740;19.498;2023-02-01T10:03:49;7.80;;;2.63;;
45136;SDS011;30894;51.740;19.498;2023-02-01T10:06:26;9.70;;;2.63;;
45136;SDS011;30894;51.740;19.498;2023-02-01T10:17:57;13.98;;;3.47;;
45136;SDS011;30894;51.740;19.498;2023-02-01T10:26:48;8.05;;;2.15;;
45136;SDS011;30894;51.740;19.498;2023-02-01T10:29:25;5.55;;;1.42;;
45136;SDS011;30894;51.740;19.498;2023-02-01T10:32:16;10.90;;;1.60;;
45136;SDS011;30894;51.740;19.498;2023-02-01T10:34:48;11.95;;;3.08;;
45136;SDS011;30894;51.740;19.498;2023-02-01T10:37:31;9.43;;;2.88;;
45136;SDS011;30894;51.740;19.498;2023-02-01T10:40:10;9.30;;;2.47;;
45136;SDS011;30894;51.740;19.498;2023-02-01T10:42:45;5.65;;;1.80;;
45136;SDS011;30894;51.740;19.498;2023-02-01T10:45:13;11.80;;;2.65;;
45136;SDS011;30894;51.740;19.498;2023-02-01T10:47:48;8.82;;;3.17;;
45136;SDS011;30894;51.740;19.498;2023-02-01T10:50:28;10.75;;;2.70;;
45136;SDS011;30894;51.740;19.498;2023-02-01T10:53:20;11.48;;;3.10;;
45136;SDS011;30894;51.740;19.498;2023-02-01T10:56:09;6.90;;;2.00;;
45136;SDS011;30894;51.740;19.498;2023-02-01T10:58:36;10.48;;;2.40;;
45136;SDS011;30894;51.740;19.498;2023-02-01T11:01:20;6.38;;;2.10;;
45136;SDS011;30894;51.740;19.498;2023-02-01T11:03:55;5.38;;;1.80;;
45136;SDS011;30894;51.740;19.498;2023-02-01T11:06:35;14.27;;;2.80;;
45136;SDS011;30894;51.740;19.498;2023-02-01T11:11:32;6.85;;;2.10;;
45136;SDS011;30894;51.740;19.498;2023-02-01T11:14:18;11.85;;;2.47;;
45136;SDS011;30894;51.740;19.498;2023-02-01T11:16:47;6.03;;;2.03;;
45136;SDS011;30894;51.740;19.498;2023-02-01T11:19:16;9.60;;;2.80;;
45136;SDS011;30894;51.740;19.498;2023-02-01T11:21:43;9.10;;;2.00;;
45136;SDS011;30894;51.740;19.498;2023-02-01T11:24:18;7.68;;;1.73;;
45136;SDS011;30894;51.740;19.498;2023-02-01T11:26:58;9.15;;;2.75;;
45136;SDS011;30894;51.740;19.498;2023-02-01T11:29:35;10.07;;;1.83;;
45136;SDS011;30894;51.740;19.498;2023-02-01T11:32:05;10.88;;;2.78;;
45136;SDS011;30894;51.740;19.498;2023-02-01T11:34:36;8.40;;;2.05;;
45136;SDS011;30894;51.740;19.498;2023-02-01T11:37:19;5.63;;;2.25;;
45136;SDS011;30894;51.740;19.498;2023-02-01T11:39:54;8.85;;;3.25;;
45136;SDS011;30894;51.740;19.498;2023-02-01T11:42:26;8.93;;;2.67;;
45136;SDS011;30894;51.740;19.498;2023-02-01T11:47:44;7.47;;;2.15;;
45136;SDS011;30894;51.740;19.498;2023-02-01T11:50:15;11.30;;;2.53;;
45136;SDS011;30894;51.740;19.498;2023-02-01T11:56:59;9.00;;;1.73;;
45136;SDS011;30894;51.740;19.498;2023-02-01T12:02:22;6.47;;;1.90;;
45136;SDS011;30894;51.740;19.498;2023-02-01T12:17:12;6.55;;;1.80;;
45136;SDS011;30894;51.740;19.498;2023-02-01T12:19:56;5.55;;;1.40;;
45136;SDS011;30894;51.740;19.498;2023-02-01T12:42:08;5.32;;;2.05;;
45136;SDS011;30894;51.740;19.498;2023-02-01T12:47:50;3.88;;;1.50;;
45136;SDS011;30894;51.740;19.498;2023-02-01T12:56:29;6.20;;;2.28;;
45136;SDS011;30894;51.740;19.498;2023-02-01T12:59:08;7.78;;;2.17;;
45136;SDS011;30894;51.740;19.498;2023-02-01T13:07:14;5.72;;;1.60;;
45136;SDS011;30894;51.740;19.498;2023-02-01T13:09:56;2.42;;;1.30;;
45136;SDS011;30894;51.740;19.498;2023-02-01T13:13:04;2.35;;;0.80;;
45136;SDS011;30894;51.740;19.498;2023-02-01T13:19:05;6.60;;;2.08;;
45136;SDS011;30894;51.740;19.498;2023-02-01T13:22:00;11.55;;;2.42;;
45136;SDS011;30894;51.740;19.498;2023-02-01T13:24:42;5.70;;;1.08;;
45136;SDS011;30894;51.740;19.498;2023-02-01T13:27:14;12.07;;;2.08;;
45136;SDS011;30894;51.740;19.498;2023-02-01T13:35:29;5.80;;;1.67;;
45136;SDS011;30894;51.740;19.498;2023-02-01T13:42:15;3.50;;;1.17;;
45136;SDS011;30894;51.740;19.498;2023-02-01T13:44:39;7.88;;;1.88;;
45136;SDS011;30894;51.740;19.498;2023-02-01T13:47:13;11.27;;;2.80;;
45136;SDS011;30894;51.740;19.498;2023-02-01T13:49:48;3.20;;;1.48;;
45136;SDS011;30894;51.740;19.498;2023-02-01T13:52:37;4.28;;;1.73;;
45136;SDS011;30894;51.740;19.498;2023-02-01T13:57:50;1.70;;;1.17;;
45136;SDS011;30894;51.740;19.498;2023-02-01T14:01:36;4.72;;;2.28;;
45136;SDS011;30894;51.740;19.498;2023-02-01T14:03:56;4.28;;;1.75;;
45136;SDS011;30894;51.740;19.498;2023-02-01T14:14:50;4.25;;;2.13;;
45136;SDS011;30894;51.740;19.498;2023-02-01T14:19:35;4.78;;;1.42;;
45136;SDS011;30894;51.740;19.498;2023-02-01T14:24:50;2.85;;;1.88;;
45136;SDS011;30894;51.740;19.498;2023-02-01T14:27:26;5.20;;;2.45;;
45136;SDS011;30894;51.740;19.498;2023-02-01T14:29:59;4.00;;;2.08;;
45136;SDS011;30894;51.740;19.498;2023-02-01T14:32:38;5.93;;;2.13;;
45136;SDS011;30894;51.740;19.498;2023-02-01T14:35:21;10.32;;;2.63;;
45136;SDS011;30894;51.740;19.498;2023-02-01T14:37:52;6.80;;;3.38;;
45136;SDS011;30894;51.740;19.498;2023-02-01T14:40:26;8.18;;;2.90;;
45136;SDS011;30894;51.740;19.498;2023-02-01T14:42:54;3.58;;;2.03;;
45136;SDS011;30894;51.740;19.498;2023-02-01T14:47:53;3.92;;;2.10;;
45136;SDS011;30894;51.740;19.498;2023-02-01T14:58:52;2.22;;;1.45;;
45136;SDS011;30894;51.740;19.498;2023-02-01T15:01:32;2.53;;;1.65;;
45136;SDS011;30894;51.740;19.498;2023-02-01T15:04:09;2.50;;;1.52;;
45136;SDS011;30894;51.740;19.498;2023-02-01T15:06:44;2.60;;;1.95;;
45136;SDS011;30894;51.740;19.498;2023-02-01T15:09:20;2.72;;;1.52;;
45136;SDS011;30894;51.740;19.498;2023-02-01T15:14:30;2.63;;;1.58;;
45136;SDS011;30894;51.740;19.498;2023-02-01T15:17:02;3.20;;;1.52;;
45136;SDS011;30894;51.740;19.498;2023-02-01T15:19:54;3.38;;;1.60;;
45136;SDS011;30894;51.740;19.498;2023-02-01T15:22:29;3.38;;;1.90;;
45136;SDS011;30894;51.740;19.498;2023-02-01T15:24:57;2.22;;;1.52;;
45136;SDS011;30894;51.740;19.498;2023-02-01T15:27:26;3.67;;;1.90;;
45136;SDS011;30894;51.740;19.498;2023-02-01T15:30:07;3.33;;;2.22;;
45136;SDS011;30894;51.740;19.498;2023-02-01T15:33:06;5.78;;;2.65;;
45136;SDS011;30894;51.740;19.498;2023-02-01T15:41:01;5.38;;;2.78;;
45136;SDS011;30894;51.740;19.498;2023-02-01T15:46:29;3.08;;;1.65;;
45136;SDS011;30894;51.740;19.498;2023-02-01T15:49:20;7.35;;;2.50;;
45136;SDS011;30894;51.740;19.498;2023-02-01T15:51:50;3.33;;;2.30;;
45136;SDS011;30894;51.740;19.498;2023-02-01T15:54:19;3.95;;;2.03;;
45136;SDS011;30894;51.740;19.498;2023-02-01T15:56:52;2.28;;;1.42;;
45136;SDS011;30894;51.740;19.498;2023-02-01T15:59:24;6.60;;;2.33;;
45136;SDS011;30894;51.740;19.498;2023-02-01T16:02:01;3.10;;;2.00;;
45136;SDS011;30894;51.740;19.498;2023-02-01T16:04:28;1.60;;;1.50;;
45136;SDS011;30894;51.740;19.498;2023-02-01T16:06:56;4.18;;;1.85;;
45136;SDS011;30894;51.740;19.498;2023-02-01T16:09:37;5.53;;;1.48;;
45136;SDS011;30894;51.740;19.498;2023-02-01T16:12:28;5.68;;;2.20;;
45136;SDS011;30894;51.740;19.498;2023-02-01T16:14:56;4.55;;;1.67;;
45136;SDS011;30894;51.740;19.498;2023-02-01T16:17:23;3.22;;;1.20;;
45136;SDS011;30894;51.740;19.498;2023-02-01T16:19:53;2.90;;;1.50;;
45136;SDS011;30894;51.740;19.498;2023-02-01T16:22:19;4.70;;;1.75;;
45136;SDS011;30894;51.740;19.498;2023-02-01T16:24:46;2.65;;;1.33;;
45136;SDS011;30894;51.740;19.498;2023-02-01T16:27:12;2.97;;;1.58;;
45136;SDS011;30894;51.740;19.498;2023-02-01T16:29:38;3.58;;;0.90;;
45136;SDS011;30894;51.740;19.498;2023-02-01T16:32:04;5.20;;;1.48;;
45136;SDS011;30894;51.740;19.498;2023-02-01T16:34:31;2.53;;;1.17;;
45136;SDS011;30894;51.740;19.498;2023-02-01T16:36:57;2.67;;;1.50;;
45136;SDS011;30894;51.740;19.498;2023-02-01T16:39:24;6.00;;;1.73;;
45136;SDS011;30894;51.740;19.498;2023-02-01T16:41:50;2.40;;;1.52;;
45136;SDS011;30894;51.740;19.498;2023-02-01T16:44:16;4.45;;;1.17;;
45136;SDS011;30894;51.740;19.498;2023-02-01T16:46:43;1.98;;;0.85;;
45136;SDS011;30894;51.740;19.498;2023-02-01T16:49:18;1.92;;;1.35;;
45136;SDS011;30894;51.740;19.498;2023-02-01T16:51:51;2.85;;;1.52;;
45136;SDS011;30894;51.740;19.498;2023-02-01T16:54:22;6.65;;;0.98;;
45136;SDS011;30894;51.740;19.498;2023-02-01T16:56:48;0.82;;;0.47;;
45136;SDS011;30894;51.740;19.498;2023-02-01T16:59:15;0.80;;;0.80;;
45136;SDS011;30894;51.740;19.498;2023-02-01T17:01:42;2.53;;;2.08;;
45136;SDS011;30894;51.740;19.498;2023-02-01T17:04:09;4.80;;;1.60;;
45136;SDS011;30894;51.740;19.498;2023-02-01T17:06:36;5.03;;;1.55;;
45136;SDS011;30894;51.740;19.498;2023-02-01T17:09:04;3.80;;;1.38;;
45136;SDS011;30894;51.740;19.498;2023-02-01T17:11:31;4.40;;;2.55;;
45136;SDS011;30894;51.740;19.498;2023-02-01T17:14:09;4.60;;;1.70;;
45136;SDS011;30894;51.740;19.498;2023-02-01T17:16:44;6.60;;;3.20;;
45136;SDS011;30894;51.740;19.498;2023-02-01T17:19:14;2.90;;;1.42;;
45136;SDS011;30894;51.740;19.498;2023-02-01T17:21:48;4.95;;;2.55;;
45136;SDS011;30894;51.740;19.498;2023-02-01T17:24:20;3.90;;;2.28;;
45136;SDS011;30894;51.740;19.498;2023-02-01T17:26:50;8.57;;;2.85;;
45136;SDS011;30894;51.740;19.498;2023-02-01T17:29:17;10.13;;;5.03;;
45136;SDS011;30894;51.740;19.498;2023-02-01T17:31:47;6.50;;;2.50;;
45136;SDS011;30894;51.740;19.498;2023-02-01T17:34:18;3.95;;;2.78;;
45136;SDS011;30894;51.740;19.498;2023-02-01T17:36:44;3.72;;;2.53;;
45136;SDS011;30894;51.740;19.498;2023-02-01T17:39:12;4.35;;;2.45;;
45136;SDS011;30894;51.740;19.498;2023-02-01T17:41:59;5.20;;;2.78;;
45136;SDS011;30894;51.740;19.498;2023-02-01T17:44:27;3.20;;;1.80;;
45136;SDS011;30894;51.740;19.498;2023-02-01T17:46:53;2.97;;;1.65;;
45136;SDS011;30894;51.740;19.498;2023-02-01T17:49:22;1.50;;;0.93;;
45136;SDS011;30894;51.740;19.498;2023-02-01T17:51:48;4.60;;;1.85;;
45136;SDS011;30894;51.740;19.498;2023-02-01T17:54:15;7.68;;;2.80;;
45136;SDS011;30894;51.740;19.498;2023-02-01T17:56:44;2.88;;;1.48;;
45136;SDS011;30894;51.740;19.498;2023-02-01T17:59:13;2.45;;;1.40;;
45136;SDS011;30894;51.740;19.498;2023-02-01T18:01:40;3.42;;;1.15;;
45136;SDS011;30894;51.740;19.498;2023-02-01T18:04:11;5.05;;;1.20;;